<?xml version='1.0' encoding='UTF-8'?><gpx version="1.1" creator="JPX - https://github.com/jenetics/jpx" xmlns="http://www.topografix.com/GPX/1/1"><trk><trkseg><trkpt lat="42.88284740241343" lon="10.782520334763722"><ele>2.0</ele><time>2026-04-06T08:08:27Z</time></trkpt><trkpt lat="42.882911945322014" lon="10.782482500795629"><ele>1.9999999999999998</ele><time>2026-04-06T08:08:34Z</time></trkpt><trkpt lat="42.882914433375156" lon="10.782395103781118"><ele>2.0</ele><time>2026-04-06T08:08:42Z</time></trkpt><trkpt lat="42.8829017755382" lon="10.78230231180905"><ele>2.0</ele><time>2026-04-06T08:08:49Z</time></trkpt><trkpt lat="42.882939361730415" lon="10.782221715983054"><ele>1.9999999999999998</ele><time>2026-04-06T08:08:56Z</time></trkpt><trkpt lat="42.88295455229614" lon="10.782137134054922"><ele>2.0</ele><time>2026-04-06T08:09:03Z</time></trkpt><trkpt lat="42.88296792283073" lon="10.782043466859779"><ele>2.0</ele><time>2026-04-06T08:09:10Z</time></trkpt><trkpt lat="42.8829689948694" lon="10.781952881210426"><ele>2.0</ele><time>2026-04-06T08:09:16.999Z</time></trkpt><trkpt lat="42.88297326270739" lon="10.781854303158076"><ele>1.9999999999999998</ele><time>2026-04-06T08:09:26Z</time></trkpt><trkpt lat="42.88296667772687" lon="10.7817587789644"><ele>2.0</ele><time>2026-04-06T08:09:32Z</time></trkpt><trkpt lat="42.88297860302585" lon="10.781668768471572"><ele>2.0</ele><time>2026-04-06T08:09:39Z</time></trkpt><trkpt lat="42.88296505534866" lon="10.781571962522735"><ele>1.9999999999999998</ele><time>2026-04-06T08:09:46Z</time></trkpt><trkpt lat="42.882920927948916" lon="10.781508305831336"><ele>2.0</ele><time>2026-04-06T08:09:52Z</time></trkpt><trkpt lat="42.882867717045045" lon="10.781456031693557"><ele>2.0</ele><time>2026-04-06T08:09:58Z</time></trkpt><trkpt lat="42.882812368930814" lon="10.781410148944518"><ele>2.2857142857142856</ele><time>2026-04-06T08:10:04Z</time></trkpt><trkpt lat="42.882764134612074" lon="10.781354127003963"><ele>2.571428571428571</ele><time>2026-04-06T08:10:10Z</time></trkpt><trkpt lat="42.882713598793565" lon="10.781285826672843"><ele>2.8571428571428568</ele><time>2026-04-06T08:10:17Z</time></trkpt><trkpt lat="42.88265720669264" lon="10.781221471547715"><ele>3.142857142857143</ele><time>2026-04-06T08:10:23Z</time></trkpt><trkpt lat="42.882593269621424" lon="10.781154654805716"><ele>3.428571428571428</ele><time>2026-04-06T08:10:30Z</time></trkpt><trkpt lat="42.88253631768783" lon="10.78111098879388"><ele>3.714285714285714</ele><time>2026-04-06T08:10:37Z</time></trkpt><trkpt lat="42.882493340368185" lon="10.781034113691183"><ele>4.0</ele><time>2026-04-06T08:10:47Z</time></trkpt><trkpt lat="42.8824372306968" lon="10.780989002840853"><ele>4.571428571428571</ele><time>2026-04-06T08:10:54Z</time></trkpt><trkpt lat="42.882376863023104" lon="10.780941704229713"><ele>5.142857142857142</ele><time>2026-04-06T08:11:01Z</time></trkpt><trkpt lat="42.88232118640182" lon="10.780886599570445"><ele>5.7142857142857135</ele><time>2026-04-06T08:11:08Z</time></trkpt><trkpt lat="42.88226032256884" lon="10.780840724495516"><ele>6.285714285714286</ele><time>2026-04-06T08:11:15Z</time></trkpt><trkpt lat="42.882201330360424" lon="10.780808217742477"><ele>6.857142857142856</ele><time>2026-04-06T08:11:22Z</time></trkpt><trkpt lat="42.88213510201041" lon="10.780777577654817"><ele>7.428571428571428</ele><time>2026-04-06T08:11:29Z</time></trkpt><trkpt lat="42.88207159052538" lon="10.780740512611006"><ele>8.0</ele><time>2026-04-06T08:11:36Z</time></trkpt><trkpt lat="42.88200695622077" lon="10.780720840925"><ele>8.0</ele><time>2026-04-06T08:11:43Z</time></trkpt><trkpt lat="42.88194299713907" lon="10.780713348702935"><ele>7.999999999999999</ele><time>2026-04-06T08:11:49Z</time></trkpt><trkpt lat="42.88187094586723" lon="10.780702990766308"><ele>8.0</ele><time>2026-04-06T08:11:56Z</time></trkpt><trkpt lat="42.88180488794231" lon="10.780677312005473"><ele>8.0</ele><time>2026-04-06T08:12:01Z</time></trkpt><trkpt lat="42.88173361630585" lon="10.780666008191707"><ele>7.999999999999999</ele><time>2026-04-06T08:12:08Z</time></trkpt><trkpt lat="42.881665344302704" lon="10.780647363531674"><ele>8.0</ele><time>2026-04-06T08:12:15Z</time></trkpt><trkpt lat="42.881597330091424" lon="10.780627594366905"><ele>8.0</ele><time>2026-04-06T08:12:24Z</time></trkpt><trkpt lat="42.881525155943336" lon="10.78060694641712"><ele>8.428571428571429</ele><time>2026-04-06T08:12:31Z</time></trkpt><trkpt lat="42.88144158904149" lon="10.780591376440025"><ele>8.857142857142856</ele><time>2026-04-06T08:12:40Z</time></trkpt><trkpt lat="42.881379250524304" lon="10.78054009575056"><ele>9.285714285714285</ele><time>2026-04-06T08:12:48Z</time></trkpt><trkpt lat="42.881322555651245" lon="10.780492271408445"><ele>9.714285714285714</ele><time>2026-04-06T08:12:56Z</time></trkpt><trkpt lat="42.88125032169047" lon="10.78047039794864"><ele>10.142857142857142</ele><time>2026-04-06T08:13:04Z</time></trkpt><trkpt lat="42.8812023294385" lon="10.780387326018657"><ele>10.571428571428571</ele><time>2026-04-06T08:13:13Z</time></trkpt><trkpt lat="42.881144530122334" lon="10.780352173777048"><ele>11.0</ele><time>2026-04-06T08:13:24Z</time></trkpt><trkpt lat="42.88108159960123" lon="10.780343914843595"><ele>11.0</ele><time>2026-04-06T08:13:30Z</time></trkpt><trkpt lat="42.88103988910794" lon="10.78027469503345"><ele>11.0</ele><time>2026-04-06T08:13:45Z</time></trkpt><trkpt lat="42.88097850675277" lon="10.780215547202495"><ele>11.0</ele><time>2026-04-06T08:13:52Z</time></trkpt><trkpt lat="42.880930788260734" lon="10.78014674465878"><ele>11.0</ele><time>2026-04-06T08:14:04Z</time></trkpt><trkpt lat="42.88087293541015" lon="10.78009315810068"><ele>11.0</ele><time>2026-04-06T08:14:23Z</time></trkpt><trkpt lat="42.880816395945665" lon="10.78003524926587"><ele>11.0</ele><time>2026-04-06T08:14:32Z</time></trkpt><trkpt lat="42.8807525465388" lon="10.779986409300873"><ele>11.0</ele><time>2026-04-06T08:14:40Z</time></trkpt><trkpt lat="42.880688409347144" lon="10.779950615136464"><ele>12.714285714285715</ele><time>2026-04-06T08:14:48Z</time></trkpt><trkpt lat="42.880637757544164" lon="10.779887385688513"><ele>14.428571428571427</ele><time>2026-04-06T08:14:55Z</time></trkpt><trkpt lat="42.880572920568" lon="10.77983805183972"><ele>16.142857142857142</ele><time>2026-04-06T08:15:03Z</time></trkpt><trkpt lat="42.88052000646973" lon="10.779778174921564"><ele>17.857142857142858</ele><time>2026-04-06T08:15:10Z</time></trkpt><trkpt lat="42.88045989201804" lon="10.779746841670098"><ele>19.57142857142857</ele><time>2026-04-06T08:15:21Z</time></trkpt><trkpt lat="42.88041763262077" lon="10.779677555495715"><ele>21.28571428571429</ele><time>2026-04-06T08:15:28Z</time></trkpt><trkpt lat="42.880361157168174" lon="10.779626703706557"><ele>23.0</ele><time>2026-04-06T08:15:34Z</time></trkpt><trkpt lat="42.88030893018377" lon="10.779559182145208"><ele>23.0</ele><time>2026-04-06T08:15:41Z</time></trkpt><trkpt lat="42.88025256853326" lon="10.779508747785513"><ele>23.0</ele><time>2026-04-06T08:15:48Z</time></trkpt><trkpt lat="42.88020251271917" lon="10.779452728206838"><ele>23.0</ele><time>2026-04-06T08:15:54Z</time></trkpt><trkpt lat="42.88014198875222" lon="10.779412355837227"><ele>23.0</ele><time>2026-04-06T08:16:02Z</time></trkpt><trkpt lat="42.88007760406984" lon="10.77937713165041"><ele>23.0</ele><time>2026-04-06T08:16:09Z</time></trkpt><trkpt lat="42.88001809057032" lon="10.779311874409414"><ele>23.0</ele><time>2026-04-06T08:16:18Z</time></trkpt><trkpt lat="42.879969141576886" lon="10.77924211422321"><ele>23.0</ele><time>2026-04-06T08:16:29Z</time></trkpt><trkpt lat="42.87994845920626" lon="10.779154924904468"><ele>24.714285714285715</ele><time>2026-04-06T08:16:37Z</time></trkpt><trkpt lat="42.87990997993621" lon="10.779084265328922"><ele>26.428571428571427</ele><time>2026-04-06T08:16:45Z</time></trkpt><trkpt lat="42.87988409142259" lon="10.779001308056378"><ele>28.142857142857142</ele><time>2026-04-06T08:16:53Z</time></trkpt><trkpt lat="42.8798629923659" lon="10.77892003059074"><ele>29.857142857142858</ele><time>2026-04-06T08:17:01Z</time></trkpt><trkpt lat="42.8798329218851" lon="10.778832955807419"><ele>31.57142857142857</ele><time>2026-04-06T08:17:11Z</time></trkpt><trkpt lat="42.879798575990385" lon="10.778749121641646"><ele>33.285714285714285</ele><time>2026-04-06T08:17:19Z</time></trkpt><trkpt lat="42.87977240508764" lon="10.778664345921916"><ele>35.0</ele><time>2026-04-06T08:17:27Z</time></trkpt><trkpt lat="42.87973752195312" lon="10.778571870438713"><ele>33.714285714285715</ele><time>2026-04-06T08:17:36Z</time></trkpt><trkpt lat="42.87969536216413" lon="10.778500517378324"><ele>32.42857142857143</ele><time>2026-04-06T08:17:43Z</time></trkpt><trkpt lat="42.879658266757545" lon="10.778425883424248"><ele>31.142857142857142</ele><time>2026-04-06T08:17:51Z</time></trkpt><trkpt lat="42.87961852976792" lon="10.778358465073502"><ele>29.857142857142858</ele><time>2026-04-06T08:18:00Z</time></trkpt><trkpt lat="42.8795925236964" lon="10.778275140750466"><ele>28.571428571428573</ele><time>2026-04-06T08:18:08Z</time></trkpt><trkpt lat="42.8795501360691" lon="10.778210305537506"><ele>27.285714285714285</ele><time>2026-04-06T08:18:14Z</time></trkpt><trkpt lat="42.879500837602755" lon="10.77814285760004"><ele>26.0</ele><time>2026-04-06T08:18:20Z</time></trkpt><trkpt lat="42.87944601700623" lon="10.778069681532127"><ele>26.0</ele><time>2026-04-06T08:18:26Z</time></trkpt><trkpt lat="42.87938116800152" lon="10.778033134004827"><ele>26.0</ele><time>2026-04-06T08:18:34Z</time></trkpt><trkpt lat="42.87932239239591" lon="10.778002011883853"><ele>26.0</ele><time>2026-04-06T08:18:42Z</time></trkpt><trkpt lat="42.87925943141521" lon="10.778024781749002"><ele>26.0</ele><time>2026-04-06T08:19:10Z</time></trkpt><trkpt lat="42.879189511314735" lon="10.778040410153286"><ele>26.0</ele><time>2026-04-06T08:19:40Z</time></trkpt><trkpt lat="42.87912619588629" lon="10.778036457315855"><ele>26.0</ele><time>2026-04-06T08:19:47.001Z</time></trkpt><trkpt lat="42.87905957088958" lon="10.77804060633242"><ele>26.0</ele><time>2026-04-06T08:19:57Z</time></trkpt><trkpt lat="42.878992446469404" lon="10.77804391557035"><ele>28.142857142857142</ele><time>2026-04-06T08:20:03Z</time></trkpt><trkpt lat="42.87892586392357" lon="10.778057776230892"><ele>30.285714285714285</ele><time>2026-04-06T08:20:09Z</time></trkpt><trkpt lat="42.878854798876894" lon="10.778078566713969"><ele>32.42857142857143</ele><time>2026-04-06T08:20:17Z</time></trkpt><trkpt lat="42.87879317537835" lon="10.778104736091604"><ele>34.57142857142857</ele><time>2026-04-06T08:20:24Z</time></trkpt><trkpt lat="42.8787258190804" lon="10.778119109291504"><ele>36.714285714285715</ele><time>2026-04-06T08:20:30Z</time></trkpt><trkpt lat="42.878662601816856" lon="10.778133479821694"><ele>38.857142857142854</ele><time>2026-04-06T08:20:37Z</time></trkpt><trkpt lat="42.878595139783755" lon="10.7781680966578"><ele>41.0</ele><time>2026-04-06T08:20:44Z</time></trkpt><trkpt lat="42.87852992053074" lon="10.77819414236168"><ele>40.99999999999999</ele><time>2026-04-06T08:20:50Z</time></trkpt><trkpt lat="42.878461381119145" lon="10.778215247335401"><ele>41.0</ele><time>2026-04-06T08:20:57Z</time></trkpt><trkpt lat="42.8783999039797" lon="10.778258842002977"><ele>41.0</ele><time>2026-04-06T08:21:03Z</time></trkpt><trkpt lat="42.87833652773608" lon="10.77829017239916"><ele>41.0</ele><time>2026-04-06T08:21:09Z</time></trkpt><trkpt lat="42.87827232992943" lon="10.778290836865075"><ele>41.0</ele><time>2026-04-06T08:21:15Z</time></trkpt><trkpt lat="42.87820732998326" lon="10.778275045234762"><ele>40.99999999999999</ele><time>2026-04-06T08:21:21Z</time></trkpt><trkpt lat="42.87814668754504" lon="10.778249129359775"><ele>41.0</ele><time>2026-04-06T08:21:27Z</time></trkpt><trkpt lat="42.87807977588262" lon="10.778220422356895"><ele>40.42857142857142</ele><time>2026-04-06T08:21:34Z</time></trkpt><trkpt lat="42.87801385599822" lon="10.778205966965922"><ele>39.857142857142854</ele><time>2026-04-06T08:21:41Z</time></trkpt><trkpt lat="42.877950775609136" lon="10.778186903296042"><ele>39.285714285714285</ele><time>2026-04-06T08:21:47Z</time></trkpt><trkpt lat="42.87788858433683" lon="10.778142514688703"><ele>38.71428571428571</ele><time>2026-04-06T08:21:55Z</time></trkpt><trkpt lat="42.87783717485899" lon="10.778091673549099"><ele>38.14285714285714</ele><time>2026-04-06T08:22:01Z</time></trkpt><trkpt lat="42.877771527801535" lon="10.77807638864223"><ele>37.57142857142857</ele><time>2026-04-06T08:22:26Z</time></trkpt><trkpt lat="42.87770811283431" lon="10.778051675074801"><ele>37.0</ele><time>2026-04-06T08:22:37Z</time></trkpt><trkpt lat="42.87765072916376" lon="10.778006061295217"><ele>37.0</ele><time>2026-04-06T08:22:46Z</time></trkpt><trkpt lat="42.877608985067155" lon="10.77793914008715"><ele>37.0</ele><time>2026-04-06T08:22:55Z</time></trkpt><trkpt lat="42.87760159574838" lon="10.777851472687905"><ele>37.0</ele><time>2026-04-06T08:23:03Z</time></trkpt><trkpt lat="42.87757294361486" lon="10.777764269449536"><ele>37.0</ele><time>2026-04-06T08:23:12Z</time></trkpt><trkpt lat="42.87752566577674" lon="10.777692467194292"><ele>37.0</ele><time>2026-04-06T08:23:20Z</time></trkpt><trkpt lat="42.87748263308023" lon="10.77762922092738"><ele>37.0</ele><time>2026-04-06T08:23:26Z</time></trkpt><trkpt lat="42.877424836581184" lon="10.777590728730228"><ele>37.0</ele><time>2026-04-06T08:23:33Z</time></trkpt><trkpt lat="42.87736464033185" lon="10.77756017573322"><ele>34.85714285714286</ele><time>2026-04-06T08:23:40Z</time></trkpt><trkpt lat="42.877298784860656" lon="10.777515133478168"><ele>32.714285714285715</ele><time>2026-04-06T08:23:48Z</time></trkpt><trkpt lat="42.87723795025516" lon="10.777478881714874"><ele>30.57142857142857</ele><time>2026-04-06T08:23:55Z</time></trkpt><trkpt lat="42.877176797251586" lon="10.777449712087611"><ele>28.42857142857143</ele><time>2026-04-06T08:24:02Z</time></trkpt><trkpt lat="42.877114760956665" lon="10.777414860608067"><ele>26.285714285714285</ele><time>2026-04-06T08:24:08Z</time></trkpt><trkpt lat="42.877041860589365" lon="10.777404687625454"><ele>24.142857142857142</ele><time>2026-04-06T08:24:16Z</time></trkpt><trkpt lat="42.8769751454122" lon="10.777398993312339"><ele>22.0</ele><time>2026-04-06T08:24:23Z</time></trkpt><trkpt lat="42.876902586343306" lon="10.777385602531252"><ele>22.0</ele><time>2026-04-06T08:24:30Z</time></trkpt><trkpt lat="42.87683243278276" lon="10.777383080968063"><ele>22.0</ele><time>2026-04-06T08:24:37Z</time></trkpt><trkpt lat="42.87676766296189" lon="10.777384994833644"><ele>22.0</ele><time>2026-04-06T08:24:45Z</time></trkpt><trkpt lat="42.8766912931219" lon="10.777397066455189"><ele>22.0</ele><time>2026-04-06T08:24:53Z</time></trkpt><trkpt lat="42.876622180460146" lon="10.777396271445603"><ele>22.0</ele><time>2026-04-06T08:25:00Z</time></trkpt><trkpt lat="42.87654847354973" lon="10.777390564204977"><ele>22.0</ele><time>2026-04-06T08:25:07Z</time></trkpt><trkpt lat="42.87648474016246" lon="10.77740586736057"><ele>22.0</ele><time>2026-04-06T08:25:14Z</time></trkpt><trkpt lat="42.87641538598522" lon="10.77739320694554"><ele>23.0</ele><time>2026-04-06T08:25:20Z</time></trkpt><trkpt lat="42.87636505617792" lon="10.777452176671936"><ele>24.0</ele><time>2026-04-06T08:25:27Z</time></trkpt><trkpt lat="42.87628970821514" lon="10.777449686318102"><ele>25.0</ele><time>2026-04-06T08:25:35Z</time></trkpt><trkpt lat="42.876371570851504" lon="10.777409259351291"><ele>26.0</ele><time>2026-04-06T08:26:03Z</time></trkpt><trkpt lat="42.87630309602579" lon="10.77740362397566"><ele>27.000000000000004</ele><time>2026-04-06T08:26:20Z</time></trkpt><trkpt lat="42.876231129344546" lon="10.777376966520366"><ele>28.0</ele><time>2026-04-06T08:26:26Z</time></trkpt><trkpt lat="42.87616265748262" lon="10.777307736844358"><ele>28.0</ele><time>2026-04-06T08:26:41Z</time></trkpt><trkpt lat="42.876123478335806" lon="10.777234624233383"><ele>28.0</ele><time>2026-04-06T08:26:47Z</time></trkpt><trkpt lat="42.87606144709844" lon="10.777200832833236"><ele>28.0</ele><time>2026-04-06T08:26:56Z</time></trkpt><trkpt lat="42.876000655389944" lon="10.777163457868275"><ele>28.0</ele><time>2026-04-06T08:27:04Z</time></trkpt><trkpt lat="42.87594128012886" lon="10.7771966298459"><ele>28.0</ele><time>2026-04-06T08:27:14Z</time></trkpt><trkpt lat="42.875876139252" lon="10.777183241646284"><ele>28.0</ele><time>2026-04-06T08:27:21Z</time></trkpt><trkpt lat="42.87581160347627" lon="10.77718857823595"><ele>28.0</ele><time>2026-04-06T08:27:29Z</time></trkpt><trkpt lat="42.875744283622744" lon="10.777180678473737"><ele>28.285714285714285</ele><time>2026-04-06T08:27:36Z</time></trkpt><trkpt lat="42.875677382379" lon="10.777172140396514"><ele>28.57142857142857</ele><time>2026-04-06T08:27:42Z</time></trkpt><trkpt lat="42.875627894152785" lon="10.777105571133081"><ele>28.857142857142858</ele><time>2026-04-06T08:27:53Z</time></trkpt><trkpt lat="42.875556414894575" lon="10.777120783273329"><ele>29.142857142857142</ele><time>2026-04-06T08:28:03Z</time></trkpt><trkpt lat="42.87549498854107" lon="10.777145484763667"><ele>29.428571428571427</ele><time>2026-04-06T08:28:10Z</time></trkpt><trkpt lat="42.87542517289357" lon="10.777182607128951"><ele>29.714285714285715</ele><time>2026-04-06T08:28:18Z</time></trkpt><trkpt lat="42.875356845618555" lon="10.777153562085465"><ele>30.0</ele><time>2026-04-06T08:28:26Z</time></trkpt><trkpt lat="42.875331737177326" lon="10.777065105069079"><ele>30.0</ele><time>2026-04-06T08:28:34Z</time></trkpt><trkpt lat="42.875349331098896" lon="10.77697820897354"><ele>30.0</ele><time>2026-04-06T08:28:41Z</time></trkpt><trkpt lat="42.8754050875935" lon="10.776932923861073"><ele>30.0</ele><time>2026-04-06T08:28:47Z</time></trkpt><trkpt lat="42.87545439224396" lon="10.776865276030279"><ele>30.0</ele><time>2026-04-06T08:28:56Z</time></trkpt><trkpt lat="42.87549584691813" lon="10.77679904007109"><ele>30.0</ele><time>2026-04-06T08:29:03Z</time></trkpt><trkpt lat="42.87548779011737" lon="10.776710182598746"><ele>30.0</ele><time>2026-04-06T08:29:13Z</time></trkpt><trkpt lat="42.875446968781404" lon="10.776629227891851"><ele>30.0</ele><time>2026-04-06T08:29:25Z</time></trkpt><trkpt lat="42.87542604526856" lon="10.776531002634513"><ele>28.571428571428573</ele><time>2026-04-06T08:30:14Z</time></trkpt><trkpt lat="42.87538976419706" lon="10.776457414831876"><ele>27.142857142857142</ele><time>2026-04-06T08:31:16Z</time></trkpt><trkpt lat="42.87537331717404" lon="10.776372211389265"><ele>25.714285714285715</ele><time>2026-04-06T08:31:29Z</time></trkpt><trkpt lat="42.87533289155363" lon="10.776296106226297"><ele>24.285714285714285</ele><time>2026-04-06T08:31:38Z</time></trkpt><trkpt lat="42.875300286117344" lon="10.776215326475496"><ele>22.857142857142858</ele><time>2026-04-06T08:31:48Z</time></trkpt><trkpt lat="42.875288548004264" lon="10.776116991050428"><ele>21.428571428571427</ele><time>2026-04-06T08:31:57Z</time></trkpt><trkpt lat="42.87530701000734" lon="10.776032977332767"><ele>20.0</ele><time>2026-04-06T08:32:09Z</time></trkpt><trkpt lat="42.87530989479466" lon="10.77594672785359"><ele>19.285714285714285</ele><time>2026-04-06T08:32:19Z</time></trkpt><trkpt lat="42.87531081222948" lon="10.775859749024756"><ele>18.571428571428573</ele><time>2026-04-06T08:32:29Z</time></trkpt><trkpt lat="42.875315057562474" lon="10.775771237800527"><ele>17.857142857142858</ele><time>2026-04-06T08:32:39Z</time></trkpt><trkpt lat="42.8753043448274" lon="10.775682324731065"><ele>17.142857142857142</ele><time>2026-04-06T08:32:53Z</time></trkpt><trkpt lat="42.8752565463201" lon="10.77559451899372"><ele>16.428571428571427</ele><time>2026-04-06T08:33:06Z</time></trkpt><trkpt lat="42.875245741813465" lon="10.775494989882272"><ele>15.714285714285715</ele><time>2026-04-06T08:33:23Z</time></trkpt><trkpt lat="42.87521724229205" lon="10.775407454460595"><ele>15.0</ele><time>2026-04-06T08:33:34Z</time></trkpt><trkpt lat="42.87518960239395" lon="10.775319296899955"><ele>15.0</ele><time>2026-04-06T08:33:42Z</time></trkpt><trkpt lat="42.87517577109382" lon="10.775233028285845"><ele>15.0</ele><time>2026-04-06T08:33:50Z</time></trkpt><trkpt lat="42.87513014464625" lon="10.775172677077139"><ele>15.0</ele><time>2026-04-06T08:33:57Z</time></trkpt><trkpt lat="42.875074755294776" lon="10.775131814898636"><ele>15.0</ele><time>2026-04-06T08:34:05Z</time></trkpt><trkpt lat="42.87501468483736" lon="10.775097053027025"><ele>15.0</ele><time>2026-04-06T08:34:12Z</time></trkpt><trkpt lat="42.87495577207053" lon="10.775064350524898"><ele>15.0</ele><time>2026-04-06T08:34:20Z</time></trkpt><trkpt lat="42.87489154266672" lon="10.775045507903846"><ele>15.0</ele><time>2026-04-06T08:34:28Z</time></trkpt><trkpt lat="42.87482303455746" lon="10.775049613911388"><ele>16.857142857142858</ele><time>2026-04-06T08:34:36Z</time></trkpt><trkpt lat="42.874762909645405" lon="10.775020391036314"><ele>18.714285714285715</ele><time>2026-04-06T08:34:44Z</time></trkpt><trkpt lat="42.87468861893559" lon="10.774993472092538"><ele>20.57142857142857</ele><time>2026-04-06T08:34:51Z</time></trkpt><trkpt lat="42.874621764362516" lon="10.77495648191378"><ele>22.42857142857143</ele><time>2026-04-06T08:35:01Z</time></trkpt><trkpt lat="42.874560686835366" lon="10.774920991816101"><ele>24.285714285714285</ele><time>2026-04-06T08:35:09Z</time></trkpt><trkpt lat="42.87450537256712" lon="10.774878588328834"><ele>26.142857142857142</ele><time>2026-04-06T08:35:19Z</time></trkpt><trkpt lat="42.87444477085633" lon="10.774846203427"><ele>28.0</ele><time>2026-04-06T08:35:30Z</time></trkpt><trkpt lat="42.87438422470429" lon="10.774793682164196"><ele>28.0</ele><time>2026-04-06T08:35:39Z</time></trkpt><trkpt lat="42.87432510278412" lon="10.774751577864626"><ele>28.0</ele><time>2026-04-06T08:35:46Z</time></trkpt><trkpt lat="42.874259799074466" lon="10.774710239705914"><ele>28.0</ele><time>2026-04-06T08:35:55Z</time></trkpt><trkpt lat="42.874186837342755" lon="10.774728133083654"><ele>28.0</ele><time>2026-04-06T08:36:05Z</time></trkpt><trkpt lat="42.874122494919376" lon="10.774733702096354"><ele>28.0</ele><time>2026-04-06T08:36:13Z</time></trkpt><trkpt lat="42.87405857691587" lon="10.77475661937865"><ele>28.0</ele><time>2026-04-06T08:36:21Z</time></trkpt><trkpt lat="42.87398900792933" lon="10.774773329529744"><ele>28.0</ele><time>2026-04-06T08:36:29Z</time></trkpt><trkpt lat="42.8739273798885" lon="10.774798119356435"><ele>30.333333333333336</ele><time>2026-04-06T08:36:37Z</time></trkpt><trkpt lat="42.87381330696269" lon="10.774803402410976"><ele>32.66666666666667</ele><time>2026-04-06T08:36:46Z</time></trkpt><trkpt lat="42.87374490493155" lon="10.774840142274888"><ele>35.0</ele><time>2026-04-06T08:37:00Z</time></trkpt><trkpt lat="42.87368369435244" lon="10.774872489196499"><ele>37.333333333333336</ele><time>2026-04-06T08:37:11Z</time></trkpt><trkpt lat="42.87360062508268" lon="10.774878034058142"><ele>39.666666666666664</ele><time>2026-04-06T08:37:18Z</time></trkpt><trkpt lat="42.87351906901169" lon="10.774849712909669"><ele>42.0</ele><time>2026-04-06T08:37:22Z</time></trkpt><trkpt lat="42.873506670521195" lon="10.774739418212139"><ele>42.0</ele><time>2026-04-06T08:37:27Z</time></trkpt><trkpt lat="42.873465664999365" lon="10.774853621161911"><ele>42.0</ele><time>2026-04-06T08:37:33Z</time></trkpt><trkpt lat="42.87341185562121" lon="10.774918571856436"><ele>42.0</ele><time>2026-04-06T08:37:37Z</time></trkpt><trkpt lat="42.873357002631394" lon="10.774977132437883"><ele>42.0</ele><time>2026-04-06T08:37:43Z</time></trkpt><trkpt lat="42.87328433719119" lon="10.774982135061018"><ele>42.0</ele><time>2026-04-06T08:37:54Z</time></trkpt><trkpt lat="42.873215399143476" lon="10.774949599972837"><ele>42.0</ele><time>2026-04-06T08:38:02Z</time></trkpt><trkpt lat="42.87314166837668" lon="10.774968641887838"><ele>41.57142857142857</ele><time>2026-04-06T08:38:13Z</time></trkpt><trkpt lat="42.873075564180986" lon="10.77495850770332"><ele>41.14285714285714</ele><time>2026-04-06T08:38:23Z</time></trkpt><trkpt lat="42.87301477738232" lon="10.774901557642368"><ele>40.714285714285715</ele><time>2026-04-06T08:38:30Z</time></trkpt><trkpt lat="42.8729639410622" lon="10.774848789079059"><ele>40.285714285714285</ele><time>2026-04-06T08:38:37Z</time></trkpt><trkpt lat="42.87291109897644" lon="10.774797551584173"><ele>39.857142857142854</ele><time>2026-04-06T08:38:44.999Z</time></trkpt><trkpt lat="42.87288030117125" lon="10.774714755626118"><ele>39.42857142857143</ele><time>2026-04-06T08:38:50.999Z</time></trkpt><trkpt lat="42.87283882268179" lon="10.774642122134814"><ele>39.0</ele><time>2026-04-06T08:38:58.999Z</time></trkpt><trkpt lat="42.8727915061492" lon="10.774567972573623"><ele>39.0</ele><time>2026-04-06T08:39:08Z</time></trkpt><trkpt lat="42.87276053429282" lon="10.774481284957846"><ele>39.0</ele><time>2026-04-06T08:39:17Z</time></trkpt><trkpt lat="42.87272029535106" lon="10.774412362000303"><ele>39.0</ele><time>2026-04-06T08:39:24Z</time></trkpt><trkpt lat="42.872738009798276" lon="10.774318780682803"><ele>39.0</ele><time>2026-04-06T08:39:30Z</time></trkpt><trkpt lat="42.87267021919146" lon="10.774339090472449"><ele>39.0</ele><time>2026-04-06T08:39:33Z</time></trkpt><trkpt lat="42.87258297118422" lon="10.774396996103539"><ele>39.0</ele><time>2026-04-06T08:39:34Z</time></trkpt><trkpt lat="42.87252117931277" lon="10.77433322869972"><ele>37.666666666666664</ele><time>2026-04-06T08:39:42Z</time></trkpt><trkpt lat="42.872458592435095" lon="10.774294978142056"><ele>36.333333333333336</ele><time>2026-04-06T08:39:53Z</time></trkpt><trkpt lat="42.87240006881741" lon="10.774335039271692"><ele>35.0</ele><time>2026-04-06T08:40:03Z</time></trkpt><trkpt lat="42.87229229644969" lon="10.77436449288531"><ele>33.66666666666667</ele><time>2026-04-06T08:40:12Z</time></trkpt><trkpt lat="42.87221725602476" lon="10.774358561882222"><ele>32.333333333333336</ele><time>2026-04-06T08:40:21Z</time></trkpt><trkpt lat="42.8721252261781" lon="10.774397440322405"><ele>31.0</ele><time>2026-04-06T08:40:24Z</time></trkpt><trkpt lat="42.87205006871469" lon="10.774384868285589"><ele>33.714285714285715</ele><time>2026-04-06T08:40:36Z</time></trkpt><trkpt lat="42.87198641707139" lon="10.774406060029314"><ele>36.42857142857143</ele><time>2026-04-06T08:40:46.999Z</time></trkpt><trkpt lat="42.87192929895792" lon="10.774456641993488"><ele>39.142857142857146</ele><time>2026-04-06T08:41:01.999Z</time></trkpt><trkpt lat="42.87186631169946" lon="10.774456097314134"><ele>41.85714285714286</ele><time>2026-04-06T08:41:05.999Z</time></trkpt><trkpt lat="42.87180064446671" lon="10.774548268278842"><ele>44.57142857142857</ele><time>2026-04-06T08:41:10Z</time></trkpt><trkpt lat="42.87173761248841" lon="10.774523222982097"><ele>47.28571428571429</ele><time>2026-04-06T08:41:12Z</time></trkpt><trkpt lat="42.87166591179791" lon="10.774524038017525"><ele>50.0</ele><time>2026-04-06T08:41:25Z</time></trkpt><trkpt lat="42.87160077158484" lon="10.774572133923375"><ele>50.142857142857146</ele><time>2026-04-06T08:41:32Z</time></trkpt><trkpt lat="42.87162287016452" lon="10.774652701596503"><ele>50.285714285714285</ele><time>2026-04-06T08:41:33Z</time></trkpt><trkpt lat="42.87156377150043" lon="10.774702873014142"><ele>50.42857142857143</ele><time>2026-04-06T08:41:41Z</time></trkpt><trkpt lat="42.87150479929806" lon="10.77473463433986"><ele>50.57142857142857</ele><time>2026-04-06T08:41:49Z</time></trkpt><trkpt lat="42.871442638210276" lon="10.774769041788998"><ele>50.714285714285715</ele><time>2026-04-06T08:41:55Z</time></trkpt><trkpt lat="42.871380851847135" lon="10.774816410727562"><ele>50.85714285714286</ele><time>2026-04-06T08:42:03Z</time></trkpt><trkpt lat="42.87131402298834" lon="10.774846064606743"><ele>51.0</ele><time>2026-04-06T08:42:12Z</time></trkpt><trkpt lat="42.87127492656086" lon="10.774775266114158"><ele>51.0</ele><time>2026-04-06T08:42:21Z</time></trkpt><trkpt lat="42.87129739528688" lon="10.774669022131597"><ele>51.0</ele><time>2026-04-06T08:42:33Z</time></trkpt><trkpt lat="42.87136274189879" lon="10.774656866375258"><ele>51.0</ele><time>2026-04-06T08:42:39Z</time></trkpt><trkpt lat="42.87138707761661" lon="10.774575159818154"><ele>51.0</ele><time>2026-04-06T08:42:46Z</time></trkpt><trkpt lat="42.87143333894263" lon="10.774508688306701"><ele>51.0</ele><time>2026-04-06T08:42:54Z</time></trkpt><trkpt lat="42.87145000533416" lon="10.774309807120312"><ele>51.0</ele><time>2026-04-06T08:43:06Z</time></trkpt><trkpt lat="42.87147717442879" lon="10.77422252076247"><ele>49.714285714285715</ele><time>2026-04-06T08:43:15Z</time></trkpt><trkpt lat="42.871500219978444" lon="10.774127446051232"><ele>48.42857142857143</ele><time>2026-04-06T08:43:21Z</time></trkpt><trkpt lat="42.87151430028753" lon="10.77403539313054"><ele>47.14285714285714</ele><time>2026-04-06T08:43:28Z</time></trkpt><trkpt lat="42.87150016855675" lon="10.773939867032489"><ele>45.85714285714286</ele><time>2026-04-06T08:43:38Z</time></trkpt><trkpt lat="42.8715193395448" lon="10.773852513150562"><ele>44.57142857142857</ele><time>2026-04-06T08:43:47Z</time></trkpt><trkpt lat="42.87155264987908" lon="10.773771892519004"><ele>43.285714285714285</ele><time>2026-04-06T08:43:54Z</time></trkpt><trkpt lat="42.871598097852306" lon="10.773697643648257"><ele>42.0</ele><time>2026-04-06T08:44:01Z</time></trkpt><trkpt lat="42.87164379624892" lon="10.77362165424242"><ele>42.0</ele><time>2026-04-06T08:44:09Z</time></trkpt><trkpt lat="42.87169462584586" lon="10.773530514102351"><ele>42.0</ele><time>2026-04-06T08:44:21Z</time></trkpt><trkpt lat="42.87172368812347" lon="10.773445124173358"><ele>42.0</ele><time>2026-04-06T08:44:29Z</time></trkpt><trkpt lat="42.87175205143495" lon="10.773356575444243"><ele>42.0</ele><time>2026-04-06T08:44:37Z</time></trkpt><trkpt lat="42.87177500604618" lon="10.773267254464814"><ele>42.0</ele><time>2026-04-06T08:44:46.001Z</time></trkpt><trkpt lat="42.87178689590768" lon="10.773180718866481"><ele>42.0</ele><time>2026-04-06T08:44:53.001Z</time></trkpt><trkpt lat="42.87180247669701" lon="10.773094030069489"><ele>42.0</ele><time>2026-04-06T08:45:00.001Z</time></trkpt><trkpt lat="42.87181518364525" lon="10.773003218350876"><ele>41.57142857142857</ele><time>2026-04-06T08:45:08.001Z</time></trkpt><trkpt lat="42.87181052280241" lon="10.772912159276547"><ele>41.14285714285714</ele><time>2026-04-06T08:45:16.001Z</time></trkpt><trkpt lat="42.87180565541711" lon="10.772821359637536"><ele>40.714285714285715</ele><time>2026-04-06T08:45:24.001Z</time></trkpt><trkpt lat="42.871815658216775" lon="10.772727685096937"><ele>40.285714285714285</ele><time>2026-04-06T08:45:32Z</time></trkpt><trkpt lat="42.87179942076674" lon="10.772634072732172"><ele>39.857142857142854</ele><time>2026-04-06T08:45:40Z</time></trkpt><trkpt lat="42.871771817223845" lon="10.772551741130993"><ele>39.42857142857143</ele><time>2026-04-06T08:45:48Z</time></trkpt><trkpt lat="42.87172197126066" lon="10.77248947742783"><ele>39.0</ele><time>2026-04-06T08:45:55Z</time></trkpt><trkpt lat="42.87167310421019" lon="10.772433050037336"><ele>39.0</ele><time>2026-04-06T08:46:02.001Z</time></trkpt><trkpt lat="42.87162045280303" lon="10.772374492664945"><ele>39.0</ele><time>2026-04-06T08:46:09.001Z</time></trkpt><trkpt lat="42.87156110683994" lon="10.77232256879057"><ele>39.0</ele><time>2026-04-06T08:46:16.001Z</time></trkpt><trkpt lat="42.871514579625874" lon="10.772262406903318"><ele>39.0</ele><time>2026-04-06T08:46:24.001Z</time></trkpt><trkpt lat="42.87145889312396" lon="10.772210501635124"><ele>39.0</ele><time>2026-04-06T08:46:32.001Z</time></trkpt><trkpt lat="42.871410213327714" lon="10.772149150153925"><ele>39.0</ele><time>2026-04-06T08:46:39.001Z</time></trkpt><trkpt lat="42.871371581446994" lon="10.77207894011847"><ele>39.0</ele><time>2026-04-06T08:46:46.001Z</time></trkpt><trkpt lat="42.871321939686105" lon="10.772012873363376"><ele>39.0</ele><time>2026-04-06T08:46:54.001Z</time></trkpt><trkpt lat="42.871266886622976" lon="10.771951348272633"><ele>39.0</ele><time>2026-04-06T08:47:02.001Z</time></trkpt><trkpt lat="42.87121753764523" lon="10.77188842446323"><ele>39.0</ele><time>2026-04-06T08:47:10.001Z</time></trkpt><trkpt lat="42.87115994266741" lon="10.771846840387227"><ele>39.0</ele><time>2026-04-06T08:47:18.001Z</time></trkpt><trkpt lat="42.87109615793594" lon="10.771813679512793"><ele>39.0</ele><time>2026-04-06T08:47:26.001Z</time></trkpt><trkpt lat="42.871044696154186" lon="10.771760440933596"><ele>39.0</ele><time>2026-04-06T08:47:33.001Z</time></trkpt><trkpt lat="42.870993524344286" lon="10.771709301510448"><ele>39.0</ele><time>2026-04-06T08:47:40.001Z</time></trkpt><trkpt lat="42.87093809600998" lon="10.77165691426452"><ele>40.142857142857146</ele><time>2026-04-06T08:47:48.001Z</time></trkpt><trkpt lat="42.87090339711947" lon="10.771584603522895"><ele>41.285714285714285</ele><time>2026-04-06T08:47:55.001Z</time></trkpt><trkpt lat="42.87086758222061" lon="10.771509605615073"><ele>42.42857142857143</ele><time>2026-04-06T08:48:03Z</time></trkpt><trkpt lat="42.87082368483453" lon="10.771440156551233"><ele>43.57142857142857</ele><time>2026-04-06T08:48:12Z</time></trkpt><trkpt lat="42.870781411391356" lon="10.771373616414298"><ele>44.71428571428571</ele><time>2026-04-06T08:48:21Z</time></trkpt><trkpt lat="42.87073009429695" lon="10.77130365883041"><ele>45.857142857142854</ele><time>2026-04-06T08:48:30.001Z</time></trkpt><trkpt lat="42.87067322005315" lon="10.771248547809114"><ele>47.0</ele><time>2026-04-06T08:48:37.001Z</time></trkpt><trkpt lat="42.870618690489124" lon="10.771203972265644"><ele>47.0</ele><time>2026-04-06T08:48:45.001Z</time></trkpt><trkpt lat="42.87055848391113" lon="10.771167937874765"><ele>47.0</ele><time>2026-04-06T08:48:54.001Z</time></trkpt><trkpt lat="42.87050278060127" lon="10.771109335118467"><ele>47.0</ele><time>2026-04-06T08:49:02.001Z</time></trkpt><trkpt lat="42.87044646059587" lon="10.771051312176862"><ele>47.0</ele><time>2026-04-06T08:49:10.001Z</time></trkpt><trkpt lat="42.870382228741626" lon="10.771019531685758"><ele>47.0</ele><time>2026-04-06T08:49:18.001Z</time></trkpt><trkpt lat="42.870320120684184" lon="10.770986138000103"><ele>47.0</ele><time>2026-04-06T08:49:25.001Z</time></trkpt><trkpt lat="42.87026125767928" lon="10.770951115454332"><ele>47.0</ele><time>2026-04-06T08:49:32.001Z</time></trkpt><trkpt lat="42.87019395634877" lon="10.770932691828147"><ele>46.14285714285714</ele><time>2026-04-06T08:49:40Z</time></trkpt><trkpt lat="42.87013158435832" lon="10.770920452759668"><ele>45.285714285714285</ele><time>2026-04-06T08:49:47Z</time></trkpt><trkpt lat="42.87006651180528" lon="10.770883268857688"><ele>44.42857142857143</ele><time>2026-04-06T08:49:54Z</time></trkpt><trkpt lat="42.870005777598614" lon="10.77083868999598"><ele>43.57142857142857</ele><time>2026-04-06T08:50:01Z</time></trkpt><trkpt lat="42.8699518485796" lon="10.770793174717051"><ele>42.714285714285715</ele><time>2026-04-06T08:50:07Z</time></trkpt><trkpt lat="42.8698979253441" lon="10.770746633791783"><ele>41.857142857142854</ele><time>2026-04-06T08:50:14Z</time></trkpt><trkpt lat="42.86983855675601" lon="10.77068223288996"><ele>41.0</ele><time>2026-04-06T08:50:21Z</time></trkpt><trkpt lat="42.86977806230712" lon="10.77062712224726"><ele>40.99999999999999</ele><time>2026-04-06T08:50:28Z</time></trkpt><trkpt lat="42.86972109376472" lon="10.770570057160205"><ele>41.0</ele><time>2026-04-06T08:50:36Z</time></trkpt><trkpt lat="42.86967331632621" lon="10.770507336875784"><ele>41.0</ele><time>2026-04-06T08:50:43Z</time></trkpt><trkpt lat="42.8696142225705" lon="10.770465312842896"><ele>41.0</ele><time>2026-04-06T08:50:51Z</time></trkpt><trkpt lat="42.86955900568955" lon="10.770416201910184"><ele>41.0</ele><time>2026-04-06T08:50:58Z</time></trkpt><trkpt lat="42.869512118546524" lon="10.770356639580822"><ele>40.99999999999999</ele><time>2026-04-06T08:51:04Z</time></trkpt><trkpt lat="42.869459560398504" lon="10.770297443752458"><ele>41.0</ele><time>2026-04-06T08:51:12Z</time></trkpt><trkpt lat="42.869405036171564" lon="10.770238163244441"><ele>40.57142857142857</ele><time>2026-04-06T08:51:17.001Z</time></trkpt><trkpt lat="42.86935245290881" lon="10.770180496673834"><ele>40.14285714285714</ele><time>2026-04-06T08:51:24.001Z</time></trkpt><trkpt lat="42.86930582290492" lon="10.770116826705634"><ele>39.71428571428571</ele><time>2026-04-06T08:51:31Z</time></trkpt><trkpt lat="42.86924913208525" lon="10.770057224103093"><ele>39.285714285714285</ele><time>2026-04-06T08:51:38Z</time></trkpt><trkpt lat="42.869190364701005" lon="10.770018488061226"><ele>38.85714285714286</ele><time>2026-04-06T08:51:44Z</time></trkpt><trkpt lat="42.86913823337673" lon="10.769962758433941"><ele>38.42857142857142</ele><time>2026-04-06T08:51:51Z</time></trkpt><trkpt lat="42.86907922396726" lon="10.769918208028574"><ele>38.0</ele><time>2026-04-06T08:51:58Z</time></trkpt><trkpt lat="42.86902067125377" lon="10.769869179221727"><ele>38.0</ele><time>2026-04-06T08:52:05Z</time></trkpt><trkpt lat="42.868961113860784" lon="10.769833883213446"><ele>38.0</ele><time>2026-04-06T08:52:12Z</time></trkpt><trkpt lat="42.86889844021658" lon="10.769807631223598"><ele>38.0</ele><time>2026-04-06T08:52:19Z</time></trkpt><trkpt lat="42.8688364141907" lon="10.769770710414987"><ele>38.0</ele><time>2026-04-06T08:52:26Z</time></trkpt><trkpt lat="42.86877608915589" lon="10.769742090327732"><ele>38.0</ele><time>2026-04-06T08:52:33Z</time></trkpt><trkpt lat="42.86871347217514" lon="10.769699366721111"><ele>38.0</ele><time>2026-04-06T08:52:41Z</time></trkpt><trkpt lat="42.86864793914808" lon="10.769686141267439"><ele>38.0</ele><time>2026-04-06T08:52:50Z</time></trkpt><trkpt lat="42.86858329664464" lon="10.769681947378864"><ele>38.0</ele><time>2026-04-06T08:52:58Z</time></trkpt><trkpt lat="42.868523590071916" lon="10.769712218921091"><ele>38.0</ele><time>2026-04-06T08:53:05Z</time></trkpt><trkpt lat="42.868486117736595" lon="10.769787799927537"><ele>38.0</ele><time>2026-04-06T08:53:16Z</time></trkpt><trkpt lat="42.868473919934246" lon="10.769872547672609"><ele>38.0</ele><time>2026-04-06T08:53:23Z</time></trkpt><trkpt lat="42.86843884320024" lon="10.769952170117522"><ele>38.0</ele><time>2026-04-06T08:53:31Z</time></trkpt><trkpt lat="42.86841481342951" lon="10.770036511015832"><ele>38.0</ele><time>2026-04-06T08:53:40Z</time></trkpt><trkpt lat="42.86839222658545" lon="10.770117514997024"><ele>38.0</ele><time>2026-04-06T08:53:46Z</time></trkpt><trkpt lat="42.86836812530072" lon="10.770212817213505"><ele>37.14285714285714</ele><time>2026-04-06T08:53:55Z</time></trkpt><trkpt lat="42.86835006036364" lon="10.77030670293725"><ele>36.28571428571429</ele><time>2026-04-06T08:54:02Z</time></trkpt><trkpt lat="42.868326705045035" lon="10.770386689756473"><ele>35.42857142857143</ele><time>2026-04-06T08:54:09Z</time></trkpt><trkpt lat="42.86832009733577" lon="10.770472808931704"><ele>34.57142857142857</ele><time>2026-04-06T08:54:16Z</time></trkpt><trkpt lat="42.868289973426535" lon="10.770551961919208"><ele>33.71428571428571</ele><time>2026-04-06T08:54:39Z</time></trkpt><trkpt lat="42.86828272163596" lon="10.770637579594146"><ele>32.857142857142854</ele><time>2026-04-06T08:54:47Z</time></trkpt><trkpt lat="42.86828097532685" lon="10.77073102156998"><ele>32.0</ele><time>2026-04-06T08:54:55Z</time></trkpt><trkpt lat="42.86826558288167" lon="10.770815893659448"><ele>32.0</ele><time>2026-04-06T08:55:04Z</time></trkpt><trkpt lat="42.868253523170104" lon="10.77090210505732"><ele>31.999999999999996</ele><time>2026-04-06T08:55:12Z</time></trkpt><trkpt lat="42.86823561390529" lon="10.770995225021192"><ele>32.0</ele><time>2026-04-06T08:55:22Z</time></trkpt><trkpt lat="42.868224374628035" lon="10.771086769410795"><ele>32.0</ele><time>2026-04-06T08:55:27Z</time></trkpt><trkpt lat="42.86817501237645" lon="10.77114321369279"><ele>31.999999999999996</ele><time>2026-04-06T08:55:36Z</time></trkpt><trkpt lat="42.8681895280746" lon="10.771232855865668"><ele>32.0</ele><time>2026-04-06T08:55:46Z</time></trkpt><trkpt lat="42.86811347629534" lon="10.771295335628784"><ele>32.0</ele><time>2026-04-06T08:55:51Z</time></trkpt><trkpt lat="42.86809082550644" lon="10.771376392352815"><ele>32.5</ele><time>2026-04-06T08:55:55Z</time></trkpt><trkpt lat="42.86805521779544" lon="10.771451112950304"><ele>33.0</ele><time>2026-04-06T08:56:04Z</time></trkpt><trkpt lat="42.867986788075015" lon="10.771494918408376"><ele>33.5</ele><time>2026-04-06T08:56:12Z</time></trkpt><trkpt lat="42.86795971777633" lon="10.771616715570351"><ele>34.0</ele><time>2026-04-06T08:56:20Z</time></trkpt><trkpt lat="42.86792432451743" lon="10.77171940623278"><ele>34.5</ele><time>2026-04-06T08:56:29Z</time></trkpt><trkpt lat="42.86788219214622" lon="10.771825060957948"><ele>35.0</ele><time>2026-04-06T08:56:40Z</time></trkpt><trkpt lat="42.86782562666772" lon="10.771884815859027"><ele>35.0</ele><time>2026-04-06T08:57:26Z</time></trkpt><trkpt lat="42.867761549130144" lon="10.771846487508478"><ele>35.0</ele><time>2026-04-06T08:57:42Z</time></trkpt><trkpt lat="42.86772456484158" lon="10.771755084122372"><ele>35.0</ele><time>2026-04-06T08:57:53Z</time></trkpt><trkpt lat="42.86779873388883" lon="10.77190189573394"><ele>35.0</ele><time>2026-04-06T08:57:57Z</time></trkpt><trkpt lat="42.86770451431535" lon="10.771805989970188"><ele>35.0</ele><time>2026-04-06T08:57:58Z</time></trkpt><trkpt lat="42.86747125905708" lon="10.77165923568369"><ele>35.0</ele><time>2026-04-06T08:58:44Z</time></trkpt><trkpt lat="42.86733732166821" lon="10.771552142144847"><ele>35.0</ele><time>2026-04-06T08:58:45Z</time></trkpt><trkpt lat="42.86775773088227" lon="10.771805824798376"><ele>35.0</ele><time>2026-04-06T08:58:48Z</time></trkpt><trkpt lat="42.86769990354401" lon="10.771865005172339"><ele>35.0</ele><time>2026-04-06T08:58:59Z</time></trkpt><trkpt lat="42.86776380937021" lon="10.771829543668806"><ele>35.0</ele><time>2026-04-06T08:59:03Z</time></trkpt><trkpt lat="42.86781192618479" lon="10.771941131365192"><ele>35.0</ele><time>2026-04-06T08:59:51Z</time></trkpt><trkpt lat="42.86779843778698" lon="10.772027306618899"><ele>35.0</ele><time>2026-04-06T09:00:00Z</time></trkpt><trkpt lat="42.86775309645608" lon="10.77208716344981"><ele>35.0</ele><time>2026-04-06T09:00:09Z</time></trkpt><trkpt lat="42.86770699523475" lon="10.772150935441802"><ele>35.0</ele><time>2026-04-06T09:00:17Z</time></trkpt><trkpt lat="42.86766281714022" lon="10.772219332521265"><ele>34.0</ele><time>2026-04-06T09:00:25Z</time></trkpt><trkpt lat="42.86759647858538" lon="10.772230551496584"><ele>33.0</ele><time>2026-04-06T09:00:42Z</time></trkpt><trkpt lat="42.867527012374964" lon="10.772233322387233"><ele>32.0</ele><time>2026-04-06T09:00:50Z</time></trkpt><trkpt lat="42.86746155896625" lon="10.772234686727664"><ele>31.0</ele><time>2026-04-06T09:00:56Z</time></trkpt><trkpt lat="42.86738153587346" lon="10.77223136689724"><ele>30.0</ele><time>2026-04-06T09:01:06Z</time></trkpt><trkpt lat="42.86730985973117" lon="10.772226683653743"><ele>29.0</ele><time>2026-04-06T09:02:11Z</time></trkpt><trkpt lat="42.867244106491306" lon="10.772229985151819"><ele>28.0</ele><time>2026-04-06T09:02:22Z</time></trkpt><trkpt lat="42.867169858385864" lon="10.772231308243981"><ele>28.0</ele><time>2026-04-06T09:02:40Z</time></trkpt><trkpt lat="42.86711062973814" lon="10.772188037788764"><ele>28.0</ele><time>2026-04-06T09:02:50Z</time></trkpt><trkpt lat="42.86703622286545" lon="10.772186591106228"><ele>28.0</ele><time>2026-04-06T09:03:52Z</time></trkpt><trkpt lat="42.86696511548663" lon="10.772165907167425"><ele>28.0</ele><time>2026-04-06T09:03:58Z</time></trkpt><trkpt lat="42.86688447405761" lon="10.7721458258639"><ele>28.0</ele><time>2026-04-06T09:04:17Z</time></trkpt><trkpt lat="42.866810984424454" lon="10.772133580953463"><ele>28.0</ele><time>2026-04-06T09:04:29Z</time></trkpt><trkpt lat="42.866749244313326" lon="10.772083327693881"><ele>28.0</ele><time>2026-04-06T09:04:38Z</time></trkpt><trkpt lat="42.866692113870734" lon="10.772035054489132"><ele>27.142857142857142</ele><time>2026-04-06T09:04:46Z</time></trkpt><trkpt lat="42.86662800737703" lon="10.772028935010127"><ele>26.285714285714285</ele><time>2026-04-06T09:04:54Z</time></trkpt><trkpt lat="42.86655883718204" lon="10.771990821386726"><ele>25.42857142857143</ele><time>2026-04-06T09:05:01Z</time></trkpt><trkpt lat="42.86649000314245" lon="10.771971724608543"><ele>24.57142857142857</ele><time>2026-04-06T09:05:08Z</time></trkpt><trkpt lat="42.86641998396754" lon="10.771988856077234"><ele>23.714285714285715</ele><time>2026-04-06T09:05:16Z</time></trkpt><trkpt lat="42.866359220668315" lon="10.772040807268608"><ele>22.857142857142858</ele><time>2026-04-06T09:05:23Z</time></trkpt><trkpt lat="42.866299534879175" lon="10.772088485251908"><ele>22.0</ele><time>2026-04-06T09:05:35Z</time></trkpt><trkpt lat="42.86624261900117" lon="10.772126145863503"><ele>22.0</ele><time>2026-04-06T09:05:42Z</time></trkpt><trkpt lat="42.86620617886289" lon="10.772202168693527"><ele>22.0</ele><time>2026-04-06T09:05:48Z</time></trkpt><trkpt lat="42.866155718832005" lon="10.77226318379209"><ele>22.0</ele><time>2026-04-06T09:05:57.999Z</time></trkpt><trkpt lat="42.86609353155903" lon="10.772306987459897"><ele>22.0</ele><time>2026-04-06T09:06:05.999Z</time></trkpt><trkpt lat="42.86603468058207" lon="10.772351201818534"><ele>22.0</ele><time>2026-04-06T09:06:12.999Z</time></trkpt><trkpt lat="42.865970889528356" lon="10.772372201157273"><ele>22.0</ele><time>2026-04-06T09:06:19Z</time></trkpt><trkpt lat="42.865908530805896" lon="10.772389815591916"><ele>22.0</ele><time>2026-04-06T09:06:29Z</time></trkpt><trkpt lat="42.86584606573152" lon="10.772429361105926"><ele>22.0</ele><time>2026-04-06T09:06:37Z</time></trkpt><trkpt lat="42.865773648330446" lon="10.772417092695493"><ele>22.0</ele><time>2026-04-06T09:06:44Z</time></trkpt><trkpt lat="42.86570712531456" lon="10.772432540696435"><ele>22.0</ele><time>2026-04-06T09:06:53Z</time></trkpt><trkpt lat="42.86564357838244" lon="10.772436565552942"><ele>22.0</ele><time>2026-04-06T09:07:01Z</time></trkpt><trkpt lat="42.86556866882719" lon="10.772444293829087"><ele>22.0</ele><time>2026-04-06T09:07:08Z</time></trkpt><trkpt lat="42.86550416689018" lon="10.77244050316117"><ele>22.0</ele><time>2026-04-06T09:07:15Z</time></trkpt><trkpt lat="42.86543839088399" lon="10.772425261851753"><ele>22.0</ele><time>2026-04-06T09:07:23Z</time></trkpt><trkpt lat="42.86536878808094" lon="10.772411754071065"><ele>22.0</ele><time>2026-04-06T09:07:34Z</time></trkpt><trkpt lat="42.86530836125227" lon="10.772386271195447"><ele>22.0</ele><time>2026-04-06T09:07:42Z</time></trkpt><trkpt lat="42.86524426891351" lon="10.772366228965051"><ele>22.0</ele><time>2026-04-06T09:07:49Z</time></trkpt><trkpt lat="42.86518407965318" lon="10.772314794882044"><ele>22.0</ele><time>2026-04-06T09:07:56Z</time></trkpt><trkpt lat="42.86512200332954" lon="10.772275810376003"><ele>22.0</ele><time>2026-04-06T09:08:04Z</time></trkpt><trkpt lat="42.86506618990952" lon="10.772227190195856"><ele>22.0</ele><time>2026-04-06T09:08:12Z</time></trkpt><trkpt lat="42.865011373778124" lon="10.77217732241111"><ele>22.0</ele><time>2026-04-06T09:08:19Z</time></trkpt><trkpt lat="42.864958095975496" lon="10.77211924953897"><ele>23.142857142857142</ele><time>2026-04-06T09:08:27Z</time></trkpt><trkpt lat="42.864919889431214" lon="10.772050879946896"><ele>24.285714285714285</ele><time>2026-04-06T09:08:36Z</time></trkpt><trkpt lat="42.86486768880587" lon="10.771987268435467"><ele>25.42857142857143</ele><time>2026-04-06T09:08:44Z</time></trkpt><trkpt lat="42.864824159223936" lon="10.771919611228164"><ele>26.57142857142857</ele><time>2026-04-06T09:08:54Z</time></trkpt><trkpt lat="42.86477223845455" lon="10.771865226811537"><ele>27.71428571428571</ele><time>2026-04-06T09:09:04Z</time></trkpt><trkpt lat="42.86472779681769" lon="10.771794821481247"><ele>28.857142857142858</ele><time>2026-04-06T09:09:13Z</time></trkpt><trkpt lat="42.864665617615394" lon="10.771752371503034"><ele>30.0</ele><time>2026-04-06T09:09:22Z</time></trkpt><trkpt lat="42.86461014692914" lon="10.771708169187402"><ele>30.285714285714285</ele><time>2026-04-06T09:09:31Z</time></trkpt><trkpt lat="42.86455403142329" lon="10.771664978903075"><ele>30.57142857142857</ele><time>2026-04-06T09:09:37Z</time></trkpt><trkpt lat="42.8644934353667" lon="10.771625422601021"><ele>30.857142857142854</ele><time>2026-04-06T09:09:45Z</time></trkpt><trkpt lat="42.864425141764315" lon="10.771598030406802"><ele>31.142857142857142</ele><time>2026-04-06T09:09:54Z</time></trkpt><trkpt lat="42.86436307802132" lon="10.771567959739205"><ele>31.428571428571423</ele><time>2026-04-06T09:10:02Z</time></trkpt><trkpt lat="42.86429984572043" lon="10.771515774997827"><ele>31.71428571428571</ele><time>2026-04-06T09:10:11Z</time></trkpt><trkpt lat="42.86422866890184" lon="10.771491825534559"><ele>32.0</ele><time>2026-04-06T09:10:19Z</time></trkpt><trkpt lat="42.86416557005294" lon="10.771477812424893"><ele>32.0</ele><time>2026-04-06T09:10:27Z</time></trkpt><trkpt lat="42.864095062958" lon="10.771452993177027"><ele>31.999999999999996</ele><time>2026-04-06T09:10:35Z</time></trkpt><trkpt lat="42.86403502208922" lon="10.77142342309624"><ele>32.0</ele><time>2026-04-06T09:10:42Z</time></trkpt><trkpt lat="42.863970374707954" lon="10.771407732294321"><ele>32.0</ele><time>2026-04-06T09:10:50Z</time></trkpt><trkpt lat="42.86390837785365" lon="10.771384421037439"><ele>31.999999999999996</ele><time>2026-04-06T09:10:56Z</time></trkpt><trkpt lat="42.863843299704165" lon="10.77136838347897"><ele>32.0</ele><time>2026-04-06T09:11:04Z</time></trkpt><trkpt lat="42.86377494698146" lon="10.771355771242666"><ele>32.0</ele><time>2026-04-06T09:11:20Z</time></trkpt><trkpt lat="42.86371526458492" lon="10.771311386900047"><ele>32.0</ele><time>2026-04-06T09:11:27Z</time></trkpt><trkpt lat="42.8636558328077" lon="10.771282262502753"><ele>31.999999999999996</ele><time>2026-04-06T09:11:34Z</time></trkpt><trkpt lat="42.86364065869079" lon="10.771195767735987"><ele>32.0</ele><time>2026-04-06T09:12:23Z</time></trkpt><trkpt lat="42.86360146289494" lon="10.77126364844536"><ele>32.0</ele><time>2026-04-06T09:12:36Z</time></trkpt><trkpt lat="42.8635316682919" lon="10.77125582968311"><ele>31.999999999999996</ele><time>2026-04-06T09:12:45Z</time></trkpt><trkpt lat="42.86346793387764" lon="10.771223150506415"><ele>32.0</ele><time>2026-04-06T09:12:52Z</time></trkpt><trkpt lat="42.86340100851292" lon="10.771194277810876"><ele>32.0</ele><time>2026-04-06T09:13:00Z</time></trkpt><trkpt lat="42.8633399047462" lon="10.771164144760819"><ele>30.0</ele><time>2026-04-06T09:13:08Z</time></trkpt><trkpt lat="42.863278326688366" lon="10.771143021816343"><ele>27.999999999999996</ele><time>2026-04-06T09:13:16Z</time></trkpt><trkpt lat="42.86321264000671" lon="10.771119568208317"><ele>26.0</ele><time>2026-04-06T09:13:23Z</time></trkpt><trkpt lat="42.8631519125646" lon="10.771090235527918"><ele>24.0</ele><time>2026-04-06T09:13:30Z</time></trkpt><trkpt lat="42.86309530369194" lon="10.771044326424729"><ele>22.0</ele><time>2026-04-06T09:13:37Z</time></trkpt><trkpt lat="42.8630292176278" lon="10.771028131374774"><ele>20.0</ele><time>2026-04-06T09:13:45Z</time></trkpt><trkpt lat="42.86296485179083" lon="10.77101749527566"><ele>18.0</ele><time>2026-04-06T09:13:52Z</time></trkpt><trkpt lat="42.86289332746748" lon="10.770993904730405"><ele>18.000000000000004</ele><time>2026-04-06T09:14:00Z</time></trkpt><trkpt lat="42.8628227892792" lon="10.77097256488921"><ele>18.0</ele><time>2026-04-06T09:14:08Z</time></trkpt><trkpt lat="42.86277005667216" lon="10.770915826755559"><ele>18.0</ele><time>2026-04-06T09:14:16Z</time></trkpt><trkpt lat="42.86271503334079" lon="10.770866723506328"><ele>18.0</ele><time>2026-04-06T09:14:22Z</time></trkpt><trkpt lat="42.86265899535458" lon="10.7707975263205"><ele>18.0</ele><time>2026-04-06T09:14:29Z</time></trkpt><trkpt lat="42.86261801473616" lon="10.770725277844601"><ele>18.000000000000004</ele><time>2026-04-06T09:14:36Z</time></trkpt><trkpt lat="42.86257201094398" lon="10.77066348915983"><ele>18.0</ele><time>2026-04-06T09:14:44Z</time></trkpt><trkpt lat="42.86252333055702" lon="10.770590025610245"><ele>21.85714285714286</ele><time>2026-04-06T09:14:51Z</time></trkpt><trkpt lat="42.862471045626336" lon="10.770536589637405"><ele>25.714285714285715</ele><time>2026-04-06T09:14:57Z</time></trkpt><trkpt lat="42.86243317874722" lon="10.770453621250399"><ele>29.57142857142857</ele><time>2026-04-06T09:15:07Z</time></trkpt><trkpt lat="42.86240583805546" lon="10.770371869090331"><ele>33.42857142857143</ele><time>2026-04-06T09:15:18Z</time></trkpt><trkpt lat="42.862357279508956" lon="10.770316108784808"><ele>37.28571428571429</ele><time>2026-04-06T09:15:26Z</time></trkpt><trkpt lat="42.86230463675481" lon="10.770265923380272"><ele>41.14285714285714</ele><time>2026-04-06T09:15:37Z</time></trkpt><trkpt lat="42.86224415494265" lon="10.770225508410164"><ele>45.0</ele><time>2026-04-06T09:15:44Z</time></trkpt><trkpt lat="42.86217301676936" lon="10.770212100713435"><ele>45.0</ele><time>2026-04-06T09:15:52Z</time></trkpt><trkpt lat="42.862104566894715" lon="10.770197782236563"><ele>45.0</ele><time>2026-04-06T09:17:16Z</time></trkpt><trkpt lat="42.86204382631132" lon="10.770168587328476"><ele>45.0</ele><time>2026-04-06T09:17:23Z</time></trkpt><trkpt lat="42.86198517219149" lon="10.770120413221857"><ele>45.0</ele><time>2026-04-06T09:17:31Z</time></trkpt><trkpt lat="42.86192221828775" lon="10.770086363656825"><ele>45.0</ele><time>2026-04-06T09:17:39Z</time></trkpt><trkpt lat="42.86186697178017" lon="10.770034602010051"><ele>45.0</ele><time>2026-04-06T09:17:46Z</time></trkpt><trkpt lat="42.861807472638674" lon="10.769992352545112"><ele>45.0</ele><time>2026-04-06T09:17:53Z</time></trkpt><trkpt lat="42.861746446943414" lon="10.769944501147675"><ele>44.857142857142854</ele><time>2026-04-06T09:18:01Z</time></trkpt><trkpt lat="42.86167472351998" lon="10.769872691035795"><ele>44.714285714285715</ele><time>2026-04-06T09:18:48Z</time></trkpt><trkpt lat="42.86161256916808" lon="10.769848191747494"><ele>44.57142857142857</ele><time>2026-04-06T09:18:55Z</time></trkpt><trkpt lat="42.86155223316531" lon="10.769792207940522"><ele>44.42857142857143</ele><time>2026-04-06T09:19:03Z</time></trkpt><trkpt lat="42.86149608911237" lon="10.769733461360946"><ele>44.285714285714285</ele><time>2026-04-06T09:19:11Z</time></trkpt><trkpt lat="42.86144198124493" lon="10.769684644155172"><ele>44.142857142857146</ele><time>2026-04-06T09:19:19Z</time></trkpt><trkpt lat="42.8613894225201" lon="10.769632302193067"><ele>44.0</ele><time>2026-04-06T09:19:26Z</time></trkpt><trkpt lat="42.86133029840589" lon="10.769566608014618"><ele>44.0</ele><time>2026-04-06T09:19:34Z</time></trkpt><trkpt lat="42.86126996037753" lon="10.769522978659749"><ele>44.0</ele><time>2026-04-06T09:19:42Z</time></trkpt><trkpt lat="42.86121692204612" lon="10.769474680967189"><ele>44.0</ele><time>2026-04-06T09:19:53Z</time></trkpt><trkpt lat="42.861159933161595" lon="10.769423174605327"><ele>44.0</ele><time>2026-04-06T09:20:02Z</time></trkpt><trkpt lat="42.861096246406" lon="10.769377407475075"><ele>44.0</ele><time>2026-04-06T09:20:11Z</time></trkpt><trkpt lat="42.86104207396184" lon="10.76931101276888"><ele>44.0</ele><time>2026-04-06T09:20:18Z</time></trkpt><trkpt lat="42.86098246162552" lon="10.76928042197925"><ele>44.0</ele><time>2026-04-06T09:20:28Z</time></trkpt><trkpt lat="42.86094131857487" lon="10.769206271350388"><ele>42.42857142857143</ele><time>2026-04-06T09:20:36Z</time></trkpt><trkpt lat="42.860889352652315" lon="10.769157723526803"><ele>40.857142857142854</ele><time>2026-04-06T09:20:43Z</time></trkpt><trkpt lat="42.8608337219816" lon="10.76910332991436"><ele>39.285714285714285</ele><time>2026-04-06T09:20:52Z</time></trkpt><trkpt lat="42.860768057010205" lon="10.769072466760138"><ele>37.714285714285715</ele><time>2026-04-06T09:21:02Z</time></trkpt><trkpt lat="42.860714030138176" lon="10.769021625588747"><ele>36.142857142857146</ele><time>2026-04-06T09:21:09Z</time></trkpt><trkpt lat="42.860651218562964" lon="10.768996699830112"><ele>34.57142857142857</ele><time>2026-04-06T09:21:41Z</time></trkpt><trkpt lat="42.86058116429306" lon="10.768988725118646"><ele>33.0</ele><time>2026-04-06T09:21:50Z</time></trkpt><trkpt lat="42.86051466796985" lon="10.768960819169212"><ele>33.0</ele><time>2026-04-06T09:22:01Z</time></trkpt><trkpt lat="42.86045208171535" lon="10.768931623925948"><ele>33.0</ele><time>2026-04-06T09:22:09Z</time></trkpt><trkpt lat="42.860391435681535" lon="10.768886585556654"><ele>33.0</ele><time>2026-04-06T09:22:19Z</time></trkpt><trkpt lat="42.860324083673895" lon="10.76886206649128"><ele>33.0</ele><time>2026-04-06T09:22:34Z</time></trkpt><trkpt lat="42.86023865616543" lon="10.768849290570072"><ele>33.0</ele><time>2026-04-06T09:22:55Z</time></trkpt><trkpt lat="42.860174903435016" lon="10.768856344840282"><ele>33.0</ele><time>2026-04-06T09:23:02Z</time></trkpt><trkpt lat="42.860106249671226" lon="10.768878719273866"><ele>33.0</ele><time>2026-04-06T09:23:47Z</time></trkpt><trkpt lat="42.860046492479555" lon="10.768929024873447"><ele>32.14285714285714</ele><time>2026-04-06T09:23:55Z</time></trkpt><trkpt lat="42.8599809587288" lon="10.76896505721492"><ele>31.28571428571429</ele><time>2026-04-06T09:24:01Z</time></trkpt><trkpt lat="42.8599305401715" lon="10.769025722558553"><ele>30.42857142857143</ele><time>2026-04-06T09:24:07Z</time></trkpt><trkpt lat="42.85987346708164" lon="10.769080003597646"><ele>29.57142857142857</ele><time>2026-04-06T09:24:14Z</time></trkpt><trkpt lat="42.85982144782704" lon="10.769169463107755"><ele>28.714285714285715</ele><time>2026-04-06T09:25:57Z</time></trkpt><trkpt lat="42.859791536038685" lon="10.769253157174335"><ele>27.857142857142858</ele><time>2026-04-06T09:26:11Z</time></trkpt><trkpt lat="42.8597672557724" lon="10.769334542066973"><ele>27.0</ele><time>2026-04-06T09:26:19Z</time></trkpt><trkpt lat="42.85973677441057" lon="10.769420192202757"><ele>29.57142857142857</ele><time>2026-04-06T09:26:27Z</time></trkpt><trkpt lat="42.85971699231089" lon="10.76950595089764"><ele>32.14285714285714</ele><time>2026-04-06T09:26:35Z</time></trkpt><trkpt lat="42.85968621047643" lon="10.769582866940794"><ele>34.714285714285715</ele><time>2026-04-06T09:26:43Z</time></trkpt><trkpt lat="42.85965200418158" lon="10.769657525958214"><ele>37.285714285714285</ele><time>2026-04-06T09:26:50Z</time></trkpt><trkpt lat="42.85961744874824" lon="10.769740034359936"><ele>39.85714285714286</ele><time>2026-04-06T09:27:00Z</time></trkpt><trkpt lat="42.85958539105923" lon="10.769818399216973"><ele>42.42857142857142</ele><time>2026-04-06T09:27:09Z</time></trkpt><trkpt lat="42.859555835478965" lon="10.769899773925811"><ele>45.0</ele><time>2026-04-06T09:27:17Z</time></trkpt><trkpt lat="42.85951725431976" lon="10.769969453749741"><ele>45.0</ele><time>2026-04-06T09:27:24Z</time></trkpt><trkpt lat="42.859498425179225" lon="10.770057200629982"><ele>45.0</ele><time>2026-04-06T09:27:32Z</time></trkpt><trkpt lat="42.85948499059301" lon="10.770143527968607"><ele>45.0</ele><time>2026-04-06T09:27:39Z</time></trkpt><trkpt lat="42.85947110482602" lon="10.77023044389133"><ele>45.0</ele><time>2026-04-06T09:27:45Z</time></trkpt><trkpt lat="42.85946911539533" lon="10.770326538253327"><ele>45.0</ele><time>2026-04-06T09:27:53Z</time></trkpt><trkpt lat="42.85946294015239" lon="10.770417772443851"><ele>45.0</ele><time>2026-04-06T09:28:00Z</time></trkpt><trkpt lat="42.85945927587695" lon="10.77050581728809"><ele>45.0</ele><time>2026-04-06T09:28:08Z</time></trkpt><trkpt lat="42.85944268557301" lon="10.77060162726412"><ele>44.857142857142854</ele><time>2026-04-06T09:28:15Z</time></trkpt><trkpt lat="42.85944363095869" lon="10.770699696251576"><ele>44.714285714285715</ele><time>2026-04-06T09:28:22Z</time></trkpt><trkpt lat="42.859447999437016" lon="10.770793618741699"><ele>44.57142857142857</ele><time>2026-04-06T09:28:30Z</time></trkpt><trkpt lat="42.85944467738598" lon="10.770883200107559"><ele>44.42857142857143</ele><time>2026-04-06T09:28:38Z</time></trkpt><trkpt lat="42.85945029247518" lon="10.770976181564928"><ele>44.285714285714285</ele><time>2026-04-06T09:28:46Z</time></trkpt><trkpt lat="42.859441437662106" lon="10.771066050721146"><ele>44.142857142857146</ele><time>2026-04-06T09:28:53Z</time></trkpt><trkpt lat="42.85944990503714" lon="10.771154649327901"><ele>44.0</ele><time>2026-04-06T09:28:59Z</time></trkpt><trkpt lat="42.85943348291324" lon="10.771243511736747"><ele>42.142857142857146</ele><time>2026-04-06T09:29:13Z</time></trkpt><trkpt lat="42.85945402104901" lon="10.771343077227646"><ele>40.285714285714285</ele><time>2026-04-06T09:29:19Z</time></trkpt><trkpt lat="42.859476348499506" lon="10.77142834219987"><ele>38.42857142857143</ele><time>2026-04-06T09:29:28Z</time></trkpt><trkpt lat="42.85949652461822" lon="10.771522606178332"><ele>36.57142857142857</ele><time>2026-04-06T09:29:36Z</time></trkpt><trkpt lat="42.859496701388956" lon="10.771616295984966"><ele>34.714285714285715</ele><time>2026-04-06T09:29:43Z</time></trkpt><trkpt lat="42.85950199037559" lon="10.771706136145866"><ele>32.85714285714286</ele><time>2026-04-06T09:29:52Z</time></trkpt><trkpt lat="42.85951412614934" lon="10.771795813613439"><ele>31.0</ele><time>2026-04-06T09:30:01Z</time></trkpt><trkpt lat="42.859529698991224" lon="10.771879225035697"><ele>29.571428571428573</ele><time>2026-04-06T09:30:26Z</time></trkpt><trkpt lat="42.859561693206246" lon="10.77195440725076"><ele>28.142857142857146</ele><time>2026-04-06T09:30:49Z</time></trkpt><trkpt lat="42.85959396065273" lon="10.772041416066314"><ele>26.714285714285715</ele><time>2026-04-06T09:31:10Z</time></trkpt><trkpt lat="42.85961275562595" lon="10.772133859880652"><ele>25.285714285714285</ele><time>2026-04-06T09:31:18Z</time></trkpt><trkpt lat="42.85962305650666" lon="10.772220847413191"><ele>23.857142857142858</ele><time>2026-04-06T09:31:26Z</time></trkpt><trkpt lat="42.85965754642955" lon="10.772297146417282"><ele>22.42857142857143</ele><time>2026-04-06T09:31:33Z</time></trkpt><trkpt lat="42.8596901250994" lon="10.772372195311942"><ele>21.0</ele><time>2026-04-06T09:31:41Z</time></trkpt><trkpt lat="42.85972730599348" lon="10.772444039520805"><ele>21.0</ele><time>2026-04-06T09:31:47Z</time></trkpt><trkpt lat="42.85977388121699" lon="10.77251036569199"><ele>21.0</ele><time>2026-04-06T09:31:54Z</time></trkpt><trkpt lat="42.85983097701732" lon="10.772580499501235"><ele>21.0</ele><time>2026-04-06T09:32:03Z</time></trkpt><trkpt lat="42.85986858257366" lon="10.772656688219358"><ele>21.0</ele><time>2026-04-06T09:32:10Z</time></trkpt><trkpt lat="42.8598725736315" lon="10.77275493652029"><ele>21.0</ele><time>2026-04-06T09:32:20Z</time></trkpt><trkpt lat="42.859836814502565" lon="10.77284770585658"><ele>21.0</ele><time>2026-04-06T09:32:27Z</time></trkpt><trkpt lat="42.859797330620104" lon="10.772921661918039"><ele>21.0</ele><time>2026-04-06T09:32:34Z</time></trkpt><trkpt lat="42.85973716147668" lon="10.772967545565551"><ele>20.857142857142858</ele><time>2026-04-06T09:32:42Z</time></trkpt><trkpt lat="42.85967090976462" lon="10.7729949465524"><ele>20.714285714285715</ele><time>2026-04-06T09:32:49Z</time></trkpt><trkpt lat="42.859616238961884" lon="10.77304460572817"><ele>20.57142857142857</ele><time>2026-04-06T09:32:56Z</time></trkpt><trkpt lat="42.85955367125645" lon="10.773096853237817"><ele>20.42857142857143</ele><time>2026-04-06T09:33:03Z</time></trkpt><trkpt lat="42.85951673145576" lon="10.773172223222907"><ele>20.285714285714285</ele><time>2026-04-06T09:33:12Z</time></trkpt><trkpt lat="42.85944666625152" lon="10.773183091493994"><ele>20.142857142857142</ele><time>2026-04-06T09:33:18Z</time></trkpt><trkpt lat="42.8593877989458" lon="10.773215985702436"><ele>20.0</ele><time>2026-04-06T09:33:24Z</time></trkpt><trkpt lat="42.8593222802464" lon="10.773276732172977"><ele>20.142857142857142</ele><time>2026-04-06T09:33:31Z</time></trkpt><trkpt lat="42.85926144954574" lon="10.773303481208977"><ele>20.285714285714285</ele><time>2026-04-06T09:33:37Z</time></trkpt><trkpt lat="42.85920409685672" lon="10.773363073065077"><ele>20.42857142857143</ele><time>2026-04-06T09:33:44Z</time></trkpt><trkpt lat="42.859146442662684" lon="10.773405261347438"><ele>20.57142857142857</ele><time>2026-04-06T09:33:49Z</time></trkpt><trkpt lat="42.85909397893161" lon="10.773470443933702"><ele>20.714285714285715</ele><time>2026-04-06T09:33:55Z</time></trkpt><trkpt lat="42.859049421829546" lon="10.773535145232112"><ele>20.857142857142858</ele><time>2026-04-06T09:34:06Z</time></trkpt><trkpt lat="42.85898072003652" lon="10.77356672088188"><ele>21.0</ele><time>2026-04-06T09:34:14Z</time></trkpt><trkpt lat="42.85891871713311" lon="10.773604330557562"><ele>21.0</ele><time>2026-04-06T09:34:22Z</time></trkpt><trkpt lat="42.85886188704878" lon="10.773657235541362"><ele>21.0</ele><time>2026-04-06T09:34:30Z</time></trkpt><trkpt lat="42.85878155087676" lon="10.773680313036456"><ele>21.0</ele><time>2026-04-06T09:34:37Z</time></trkpt><trkpt lat="42.85873171897325" lon="10.773735207798449"><ele>21.0</ele><time>2026-04-06T09:34:43Z</time></trkpt><trkpt lat="42.85868515410565" lon="10.773796812477322"><ele>21.0</ele><time>2026-04-06T09:34:51Z</time></trkpt><trkpt lat="42.8586375068688" lon="10.773857538772914"><ele>21.0</ele><time>2026-04-06T09:35:00Z</time></trkpt><trkpt lat="42.858575601955096" lon="10.773888589033692"><ele>21.0</ele><time>2026-04-06T09:35:06Z</time></trkpt><trkpt lat="42.8585139833526" lon="10.773940218253365"><ele>21.0</ele><time>2026-04-06T09:35:13Z</time></trkpt><trkpt lat="42.858454622521485" lon="10.773971142290936"><ele>21.0</ele><time>2026-04-06T09:35:21Z</time></trkpt><trkpt lat="42.85839023667825" lon="10.774005994919863"><ele>21.0</ele><time>2026-04-06T09:35:27Z</time></trkpt><trkpt lat="42.858328377059706" lon="10.774049049402809"><ele>21.0</ele><time>2026-04-06T09:35:34Z</time></trkpt><trkpt lat="42.85826547420704" lon="10.774090269793573"><ele>21.0</ele><time>2026-04-06T09:35:42Z</time></trkpt><trkpt lat="42.858207952176315" lon="10.774137488090398"><ele>21.0</ele><time>2026-04-06T09:35:50Z</time></trkpt><trkpt lat="42.8581522040374" lon="10.774184892944222"><ele>21.0</ele><time>2026-04-06T09:35:57Z</time></trkpt><trkpt lat="42.85808773842393" lon="10.774243044736584"><ele>21.142857142857142</ele><time>2026-04-06T09:37:24Z</time></trkpt><trkpt lat="42.85803105004909" lon="10.774284478030452"><ele>21.285714285714285</ele><time>2026-04-06T09:37:33Z</time></trkpt><trkpt lat="42.85797615162612" lon="10.774342332140815"><ele>21.42857142857143</ele><time>2026-04-06T09:37:41Z</time></trkpt><trkpt lat="42.85792066272502" lon="10.77438786055828"><ele>21.57142857142857</ele><time>2026-04-06T09:37:49Z</time></trkpt><trkpt lat="42.85786539772667" lon="10.774446230899553"><ele>21.714285714285715</ele><time>2026-04-06T09:37:57Z</time></trkpt><trkpt lat="42.85781013029324" lon="10.77451396983699"><ele>21.857142857142858</ele><time>2026-04-06T09:38:06Z</time></trkpt><trkpt lat="42.85776353363535" lon="10.774581043959174"><ele>22.0</ele><time>2026-04-06T09:38:14Z</time></trkpt><trkpt lat="42.85770930124179" lon="10.774625714704719"><ele>22.0</ele><time>2026-04-06T09:38:21Z</time></trkpt><trkpt lat="42.85766071416956" lon="10.774681990866595"><ele>22.0</ele><time>2026-04-06T09:38:27Z</time></trkpt><trkpt lat="42.857607303352054" lon="10.774739619916401"><ele>22.0</ele><time>2026-04-06T09:38:34Z</time></trkpt><trkpt lat="42.85755112628821" lon="10.774792292699214"><ele>22.0</ele><time>2026-04-06T09:38:41Z</time></trkpt><trkpt lat="42.85750647722294" lon="10.77472503450547"><ele>22.0</ele><time>2026-04-06T09:39:02Z</time></trkpt><trkpt lat="42.85746990666461" lon="10.77465056055129"><ele>22.0</ele><time>2026-04-06T09:39:15Z</time></trkpt><trkpt lat="42.857435215692696" lon="10.774566421073256"><ele>22.0</ele><time>2026-04-06T09:39:29Z</time></trkpt><trkpt lat="42.857398092346436" lon="10.774484051722338"><ele>21.0</ele><time>2026-04-06T09:39:42Z</time></trkpt><trkpt lat="42.857350785193866" lon="10.774412950646326"><ele>20.0</ele><time>2026-04-06T09:39:54Z</time></trkpt><trkpt lat="42.857293988967676" lon="10.774371236548927"><ele>19.0</ele><time>2026-04-06T09:40:03Z</time></trkpt><trkpt lat="42.8572495184671" lon="10.774306104964545"><ele>18.0</ele><time>2026-04-06T09:40:15Z</time></trkpt><trkpt lat="42.85717939741093" lon="10.77428150370455"><ele>17.0</ele><time>2026-04-06T09:40:24Z</time></trkpt><trkpt lat="42.857115879989045" lon="10.77427710224296"><ele>16.0</ele><time>2026-04-06T09:40:36Z</time></trkpt><trkpt lat="42.85704837414997" lon="10.774274353351053"><ele>15.0</ele><time>2026-04-06T09:40:50Z</time></trkpt><trkpt lat="42.856985440893006" lon="10.774269314619787"><ele>6.0</ele><time>2026-04-06T09:40:58Z</time></trkpt><trkpt lat="42.85692988788592" lon="10.774323138569649"><ele>6.0</ele><time>2026-04-06T09:41:07Z</time></trkpt><trkpt lat="42.85690930428236" lon="10.774408767158302"><ele>15.0</ele><time>2026-04-06T09:41:16Z</time></trkpt></trkseg></trk></gpx>